Airfield :
LOGIN :

Register | Disclaimer

   EN    FR    IT 

 










Legend :    VFR   Marginal VFR   IFR   Intensive IFR   Very Intensive IFR
Visi :
Ceiling :
>= 8 km
>= 3000ft
5 to 8 km
1000 to 3000 ft
1500m to 5 km
500 to 1000 ft
800 to 1500m
200 to 500 ft
< 800m
< 200 ft
Symbols :   Thunderstorms  Fog  Heavy snow  Heavy precipitations  Wind > 20 kt
SIGMETs :     Misc.  Thunderstorms  Icing  Turbulence  Mountain Waves  Volcanic Ashes







- Airport Elevation : 364 ft
- IATA code : FRA


EDDF - Frankfurt Int.

CURRENT METAR :
  • 210720Z VRB01KT CAVOK 01/01 Q1027 NOSIG

EXPIRED METARs :
  • 210650Z 20003KT 160V240 CAVOK 01/M00 Q1027 NOSIG
  • 210620Z 22003KT CAVOK 00/M00 Q1027 NOSIG
  • 210550Z 22004KT CAVOK 00/M01 Q1027 NOSIG
  • 210520Z VRB02KT CAVOK M00/M01 Q1027 NOSIG
  • 210450Z VRB01KT 9999 FEW030 01/M00 Q1027 NOSIG

TAF TAF EDDF
Valid from the 21 at 06:00 until the 22 at 12:00 UTC


210500Z 2106/2212 21005KT 9999 BKN035
TEMPO 2106/2112 SCT035
PROB30
TEMPO 2106/2109 2000 BR
BECMG 2123/2201 29005KT
No reported NOTAMs for that airfield.



MET'MAP, your aeronautical weather chart ! - Copyright ORBIFLY December 2007 - Disclaimer

ORBIFLY MET'MAP TEAM :

Programming & Development : Alexandra Zaïnal
Concept & Development : Baudouin d'Aumeries
Co-Development & Prog : Marc-Olivier Méhu
Technical & hardware support : Manuel Goepfert

Contact : metmap@orbifly.com




SOURCES & CREDITS :

   NOAA